createdAt,value
2022-09-02T00:00:19.000Z,0
2022-09-02T00:01:50.000Z,0
2022-09-02T00:03:20.000Z,0
2022-09-02T00:04:51.000Z,0
2022-09-02T00:06:08.000Z,0
2022-09-02T00:07:24.000Z,0
2022-09-02T00:08:55.000Z,0
2022-09-02T00:10:25.000Z,0
2022-09-02T00:11:56.000Z,0
2022-09-02T00:13:27.000Z,0
2022-09-02T00:14:57.000Z,0
2022-09-02T00:16:28.000Z,0
2022-09-02T00:17:58.000Z,0
2022-09-02T00:19:29.000Z,0
2022-09-02T00:20:59.000Z,0
2022-09-02T00:23:33.000Z,0
2022-09-02T00:25:04.000Z,0
2022-09-02T00:26:34.000Z,0
2022-09-02T00:28:05.000Z,0
2022-09-02T00:29:35.000Z,0
2022-09-02T00:31:06.000Z,0
2022-09-02T00:32:36.000Z,0
2022-09-02T00:34:07.000Z,0
2022-09-02T00:35:37.000Z,0
2022-09-02T00:38:25.000Z,0
2022-09-02T00:39:42.000Z,0
2022-09-02T00:41:12.000Z,0
2022-09-02T00:42:43.000Z,0
2022-09-02T00:44:13.000Z,0
2022-09-02T00:45:44.000Z,0
2022-09-02T00:47:14.000Z,0
2022-09-02T00:48:45.000Z,0
2022-09-02T00:50:15.000Z,0
2022-09-02T00:51:46.000Z,0
2022-09-02T00:53:16.000Z,0
2022-09-02T00:54:33.000Z,0
2022-09-02T00:55:50.000Z,0
2022-09-02T00:57:21.000Z,0
2022-09-02T00:58:59.000Z,0
2022-09-02T01:00:30.000Z,0
2022-09-02T01:02:00.000Z,0
2022-09-02T01:03:31.000Z,0
2022-09-02T01:05:01.000Z,0
2022-09-02T01:06:32.000Z,0
2022-09-02T01:08:02.000Z,0
2022-09-02T01:09:33.000Z,0
2022-09-02T01:10:50.000Z,0
2022-09-02T01:12:07.000Z,0
2022-09-02T01:13:37.000Z,0
2022-09-02T01:15:08.000Z,0
2022-09-02T01:16:38.000Z,0
2022-09-02T01:18:09.000Z,0
2022-09-02T01:19:39.000Z,0
2022-09-02T01:21:10.000Z,0
2022-09-02T01:22:40.000Z,0
2022-09-02T01:24:11.000Z,0
2022-09-02T01:25:41.000Z,0
2022-09-02T01:26:58.000Z,0
2022-09-02T01:31:16.000Z,0
2022-09-02T01:32:47.000Z,0
2022-09-02T01:34:17.000Z,0
2022-09-02T01:35:48.000Z,0
2022-09-02T01:37:18.000Z,0
2022-09-02T01:38:49.000Z,0
2022-09-02T01:40:19.000Z,0
2022-09-02T01:41:50.000Z,0
2022-09-02T01:43:07.000Z,0
2022-09-02T01:44:24.000Z,0
2022-09-02T01:45:54.000Z,0
2022-09-02T01:47:25.000Z,0
2022-09-02T01:48:55.000Z,0
2022-09-02T01:50:26.000Z,0
2022-09-02T01:51:57.000Z,0
2022-09-02T01:53:27.000Z,0
2022-09-02T01:54:58.000Z,0
2022-09-02T01:56:28.000Z,0
2022-09-02T01:57:59.000Z,0
2022-09-02T02:00:32.000Z,0
2022-09-02T02:02:03.000Z,0
2022-09-02T02:03:34.000Z,0
2022-09-02T02:05:04.000Z,0
2022-09-02T02:06:35.000Z,0
2022-09-02T02:08:05.000Z,0
2022-09-02T02:09:36.000Z,0
2022-09-02T02:11:06.000Z,0
2022-09-02T02:12:37.000Z,0
2022-09-02T02:14:07.000Z,0
2022-09-02T02:16:41.000Z,0
2022-09-02T02:18:12.000Z,0
2022-09-02T02:19:42.000Z,0
2022-09-02T02:21:13.000Z,0
2022-09-02T02:22:43.000Z,0
2022-09-02T02:24:14.000Z,0
2022-09-02T02:25:44.000Z,0
2022-09-02T02:27:15.000Z,0
2022-09-02T02:28:45.000Z,0
2022-09-02T02:30:16.000Z,0
2022-09-02T02:31:33.000Z,0
2022-09-02T02:32:50.000Z,0
2022-09-02T02:34:20.000Z,0
2022-09-02T02:35:51.000Z,0
2022-09-02T02:37:21.000Z,0
2022-09-02T02:38:52.000Z,0
2022-09-02T02:40:22.000Z,0
2022-09-02T02:41:53.000Z,0
2022-09-02T02:43:23.000Z,0
2022-09-02T02:44:54.000Z,0
2022-09-02T02:46:24.000Z,0
2022-09-02T02:47:41.000Z,0
2022-09-02T02:48:58.000Z,0
2022-09-02T02:50:29.000Z,0
2022-09-02T02:51:59.000Z,0
2022-09-02T02:53:30.000Z,0
2022-09-02T02:55:00.000Z,0
2022-09-02T02:56:31.000Z,0
2022-09-02T02:58:01.000Z,0
2022-09-02T02:59:32.000Z,0
2022-09-02T03:01:02.000Z,0
2022-09-02T03:02:33.000Z,0
2022-09-02T03:03:50.000Z,0
2022-09-02T03:05:07.000Z,0
2022-09-02T03:06:37.000Z,0
2022-09-02T03:08:08.000Z,0
2022-09-02T03:09:38.000Z,0
2022-09-02T03:11:09.000Z,0
2022-09-02T03:12:39.000Z,0
2022-09-02T03:15:40.000Z,0
2022-09-02T03:17:11.000Z,0
2022-09-02T03:18:41.000Z,0
2022-09-02T03:19:58.000Z,0
2022-09-02T03:21:15.000Z,0
2022-09-02T03:22:46.000Z,0
2022-09-02T03:24:16.000Z,0
2022-09-02T03:25:47.000Z,0
2022-09-02T03:27:17.000Z,0
2022-09-02T03:28:48.000Z,0
2022-09-02T03:30:18.000Z,0
2022-09-02T03:31:49.000Z,0
2022-09-02T03:33:19.000Z,0
2022-09-02T03:34:50.000Z,0
2022-09-02T03:36:07.000Z,0
2022-09-02T03:37:24.000Z,0
2022-09-02T03:38:54.000Z,0
2022-09-02T03:40:25.000Z,0
2022-09-02T03:41:55.000Z,0
2022-09-02T03:43:26.000Z,0
2022-09-02T03:44:56.000Z,0
2022-09-02T03:46:27.000Z,0
2022-09-02T03:47:57.000Z,0
2022-09-02T03:49:28.000Z,0
2022-09-02T03:50:58.000Z,0
2022-09-02T03:52:15.000Z,0
2022-09-02T03:53:32.000Z,0
2022-09-02T03:55:02.000Z,0
2022-09-02T03:56:33.000Z,0
2022-09-02T03:58:03.000Z,0
2022-09-02T03:59:34.000Z,0
2022-09-02T04:01:04.000Z,0
2022-09-02T04:02:35.000Z,0
2022-09-02T04:04:06.000Z,0
2022-09-02T04:05:36.000Z,0
2022-09-02T04:07:07.000Z,0
2022-09-02T04:08:23.991Z,0
2022-09-02T04:09:40.000Z,0
2022-09-02T04:12:41.000Z,0
2022-09-02T04:14:12.000Z,0
2022-09-02T04:15:43.000Z,0
2022-09-02T04:17:13.000Z,0
2022-09-02T04:18:44.000Z,0
2022-09-02T04:20:14.000Z,0
2022-09-02T04:21:45.000Z,0
2022-09-02T04:23:15.000Z,0
2022-09-02T04:25:49.000Z,0
2022-09-02T04:27:20.000Z,0
2022-09-02T04:28:50.000Z,0
2022-09-02T04:30:21.000Z,0
2022-09-02T04:31:51.000Z,0
2022-09-02T04:33:22.000Z,0
2022-09-02T04:34:52.000Z,0
2022-09-02T04:36:23.000Z,0
2022-09-02T04:37:53.000Z,0
2022-09-02T04:39:24.000Z,0
2022-09-02T04:40:41.000Z,0
2022-09-02T04:41:58.000Z,0
2022-09-02T04:43:28.000Z,0
2022-09-02T04:44:59.000Z,0
2022-09-02T04:46:29.000Z,0
2022-09-02T04:48:00.000Z,0
2022-09-02T04:49:30.000Z,0
2022-09-02T04:51:01.000Z,0
2022-09-02T04:52:31.000Z,0
2022-09-02T04:54:02.000Z,0
2022-09-02T04:55:32.000Z,5
2022-09-02T04:56:49.000Z,5
2022-09-02T04:58:06.000Z,5
2022-09-02T04:59:37.000Z,5
2022-09-02T05:01:07.000Z,5
2022-09-02T05:02:38.000Z,5
2022-09-02T05:04:08.000Z,5
2022-09-02T05:05:39.000Z,5
2022-09-02T05:07:09.000Z,5
2022-09-02T05:08:40.000Z,5
2022-09-02T05:10:10.000Z,11
2022-09-02T05:11:41.000Z,11
2022-09-02T05:12:58.000Z,11
2022-09-02T05:15:45.000Z,11
2022-09-02T05:17:16.000Z,11
2022-09-02T05:18:46.000Z,11
2022-09-02T05:20:17.000Z,11
2022-09-02T05:21:47.000Z,11
2022-09-02T05:23:18.000Z,16
2022-09-02T05:24:48.000Z,16
2022-09-02T05:26:19.000Z,16
2022-09-02T05:27:49.000Z,16
2022-09-02T05:29:06.000Z,16
2022-09-02T05:30:23.000Z,16
2022-09-02T05:31:54.000Z,16
2022-09-02T05:33:24.000Z,16
2022-09-02T05:34:55.000Z,22
2022-09-02T05:36:25.000Z,22
2022-09-02T05:39:26.000Z,22
2022-09-02T05:40:57.000Z,22
2022-09-02T05:42:27.000Z,22
2022-09-02T05:43:58.000Z,28
2022-09-02T05:46:32.000Z,28
2022-09-02T05:48:02.000Z,28
2022-09-02T05:49:33.000Z,28
2022-09-02T05:51:03.000Z,28
2022-09-02T05:52:34.000Z,28
2022-09-02T05:54:13.000Z,33
2022-09-02T05:55:43.000Z,33
2022-09-02T05:57:14.000Z,33
2022-09-02T05:58:44.000Z,33
2022-09-02T06:00:15.000Z,33
2022-09-02T06:01:32.000Z,33
2022-09-02T06:02:48.000Z,33
2022-09-02T06:04:19.000Z,33
2022-09-02T06:05:50.000Z,39
2022-09-02T06:07:20.000Z,39
2022-09-02T06:08:51.000Z,39
2022-09-02T06:10:21.000Z,39
2022-09-02T06:11:52.000Z,39
2022-09-02T06:13:22.000Z,39
2022-09-02T06:14:53.000Z,45
2022-09-02T06:16:23.000Z,45
2022-09-02T06:17:40.000Z,50
2022-09-02T06:18:57.000Z,50
2022-09-02T06:20:28.000Z,50
2022-09-02T06:21:58.000Z,50
2022-09-02T06:23:29.000Z,56
2022-09-02T06:24:59.000Z,50
2022-09-02T06:26:30.000Z,50
2022-09-02T06:28:00.000Z,50
2022-09-02T06:29:31.000Z,50
2022-09-02T06:31:01.000Z,56
2022-09-02T06:32:32.000Z,56
2022-09-02T06:33:49.000Z,61
2022-09-02T06:35:06.000Z,61
2022-09-02T06:36:36.000Z,61
2022-09-02T06:38:07.000Z,67
2022-09-02T06:39:37.000Z,67
2022-09-02T06:41:08.000Z,73
2022-09-02T06:42:38.000Z,78
2022-09-02T06:44:09.000Z,78
2022-09-02T06:45:39.000Z,78
2022-09-02T06:47:10.000Z,90
2022-09-02T06:48:40.000Z,90
2022-09-02T06:49:57.000Z,90
2022-09-02T06:51:14.000Z,90
2022-09-02T06:52:45.000Z,95
2022-09-02T06:54:15.000Z,95
2022-09-02T06:55:46.000Z,95
2022-09-02T06:57:16.000Z,101
2022-09-02T06:58:47.000Z,95
2022-09-02T07:01:48.000Z,101
2022-09-02T07:03:18.000Z,101
2022-09-02T07:04:49.000Z,101
2022-09-02T07:06:06.000Z,106
2022-09-02T07:07:23.000Z,118
2022-09-02T07:08:53.000Z,112
2022-09-02T07:10:24.000Z,106
2022-09-02T07:11:54.000Z,106
2022-09-02T07:13:25.000Z,112
2022-09-02T07:14:55.000Z,112
2022-09-02T07:16:26.000Z,118
2022-09-02T07:17:56.000Z,118
2022-09-02T07:19:27.000Z,123
2022-09-02T07:20:57.000Z,118
2022-09-02T07:22:14.000Z,123
2022-09-02T07:23:31.000Z,123
2022-09-02T07:25:02.000Z,123
2022-09-02T07:26:32.000Z,123
2022-09-02T07:28:03.000Z,129
2022-09-02T07:29:33.000Z,140
2022-09-02T07:31:04.000Z,135
2022-09-02T07:32:34.000Z,140
2022-09-02T07:34:05.000Z,140
2022-09-02T07:35:35.000Z,140
2022-09-02T07:37:06.000Z,146
2022-09-02T07:38:22.000Z,146
2022-09-02T07:39:39.000Z,146
2022-09-02T07:41:10.000Z,140
2022-09-02T07:42:40.000Z,151
2022-09-02T07:44:11.000Z,146
2022-09-02T07:45:41.000Z,151
2022-09-02T07:47:12.000Z,157
2022-09-02T07:48:42.000Z,213
2022-09-02T07:51:43.000Z,157
2022-09-02T07:53:14.000Z,168
2022-09-02T07:54:31.000Z,157
2022-09-02T07:57:18.000Z,180
2022-09-02T08:00:19.000Z,427
2022-09-02T08:01:50.000Z,309
2022-09-02T08:03:20.000Z,579
2022-09-02T08:04:51.000Z,961
2022-09-02T08:06:21.000Z,1597
2022-09-02T08:09:23.000Z,3448
2022-09-02T08:10:39.000Z,3560
2022-09-02T08:11:56.000Z,3352
2022-09-02T08:14:57.000Z,3324
2022-09-02T08:17:59.000Z,3352
2022-09-02T08:19:29.000Z,3183
2022-09-02T08:21:00.000Z,3251
2022-09-02T08:22:30.000Z,3425
2022-09-02T08:24:01.000Z,3549
2022-09-02T08:25:31.000Z,3780
2022-09-02T08:26:48.000Z,3723
2022-09-02T08:28:05.000Z,3622
2022-09-02T08:29:36.000Z,3532
2022-09-02T08:31:06.000Z,3481
2022-09-02T08:32:37.000Z,3656
2022-09-02T08:34:07.000Z,3431
2022-09-02T08:35:38.000Z,3560
2022-09-02T08:37:08.000Z,3285
2022-09-02T08:38:39.000Z,1726
2022-09-02T08:40:09.000Z,2418
2022-09-02T08:41:40.000Z,871
2022-09-02T08:42:56.000Z,3048
2022-09-02T08:44:13.000Z,2570
2022-09-02T08:45:44.000Z,3414
2022-09-02T08:48:45.000Z,3470
2022-09-02T08:50:15.000Z,2829
2022-09-02T08:53:16.000Z,3363
2022-09-02T08:56:17.000Z,298
2022-09-02T08:57:48.000Z,540
2022-09-02T08:59:04.000Z,286
2022-09-02T09:00:21.000Z,270
2022-09-02T09:01:52.000Z,1164
2022-09-02T09:03:22.000Z,691
2022-09-02T09:04:53.000Z,3217
2022-09-02T09:06:23.000Z,3470
2022-09-02T09:07:54.000Z,3521
2022-09-02T09:09:24.000Z,2418
2022-09-02T09:10:55.000Z,3121
2022-09-02T09:12:25.000Z,3375
2022-09-02T09:13:56.000Z,2525
2022-09-02T09:15:13.000Z,855
2022-09-02T09:16:30.000Z,478
2022-09-02T09:18:00.000Z,270
2022-09-02T09:19:31.000Z,281
2022-09-02T09:21:01.000Z,646
2022-09-02T09:22:32.000Z,478
2022-09-02T09:24:02.000Z,1001
2022-09-02T09:25:33.000Z,270
2022-09-02T09:27:03.000Z,354
2022-09-02T09:28:34.000Z,292
2022-09-02T09:30:04.000Z,888
2022-09-02T09:31:21.000Z,365
2022-09-02T09:32:38.000Z,1074
2022-09-02T09:34:09.000Z,478
2022-09-02T09:35:39.000Z,264
2022-09-02T09:38:40.000Z,461
2022-09-02T09:40:11.000Z,1473
2022-09-02T09:41:42.000Z,1383
2022-09-02T09:43:12.000Z,1057
2022-09-02T09:44:43.000Z,461
2022-09-02T09:46:13.000Z,281
2022-09-02T09:47:30.000Z,331
2022-09-02T09:48:47.000Z,1085
2022-09-02T09:50:17.000Z,2396
2022-09-02T09:51:48.000Z,3065
2022-09-02T09:53:19.000Z,3161
2022-09-02T09:54:49.000Z,3003
2022-09-02T09:56:20.000Z,2283
2022-09-02T09:57:50.000Z,281
2022-09-02T09:59:21.000Z,2559
2022-09-02T10:00:51.000Z,1968
2022-09-02T10:02:22.000Z,298
2022-09-02T10:03:39.000Z,270
2022-09-02T10:04:56.000Z,292
2022-09-02T10:06:26.000Z,303
2022-09-02T10:07:57.000Z,303
2022-09-02T10:09:27.000Z,354
2022-09-02T10:12:28.000Z,2542
2022-09-02T10:13:59.000Z,303
2022-09-02T10:15:29.000Z,641
2022-09-02T10:17:00.000Z,2576
2022-09-02T10:18:30.000Z,1895
2022-09-02T10:19:47.000Z,2806
2022-09-02T10:21:04.000Z,360
2022-09-02T10:22:35.000Z,348
2022-09-02T10:24:05.000Z,2025
2022-09-02T10:27:06.000Z,1321
2022-09-02T10:28:37.000Z,230
2022-09-02T10:30:07.000Z,286
2022-09-02T10:33:08.000Z,292
2022-09-02T10:34:39.000Z,275
2022-09-02T10:35:56.000Z,365
2022-09-02T10:38:43.000Z,405
2022-09-02T10:40:14.000Z,444
2022-09-02T10:41:44.000Z,450
2022-09-02T10:43:15.000Z,849
2022-09-02T10:44:45.000Z,1181
2022-09-02T10:46:16.000Z,427
2022-09-02T10:47:46.000Z,405
2022-09-02T10:49:17.000Z,388
2022-09-02T10:50:47.000Z,337
2022-09-02T10:52:04.000Z,286
2022-09-02T10:53:21.000Z,281
2022-09-02T10:54:51.000Z,247
2022-09-02T10:56:22.000Z,298
2022-09-02T10:57:52.000Z,275
2022-09-02T10:59:23.000Z,241
2022-09-02T11:00:53.000Z,225
2022-09-02T11:02:24.000Z,208
2022-09-02T11:03:55.000Z,225
2022-09-02T11:05:25.000Z,247
2022-09-02T11:06:56.000Z,236
2022-09-02T11:08:26.000Z,241
2022-09-02T11:09:43.000Z,230
2022-09-02T11:11:00.000Z,208
2022-09-02T11:12:30.000Z,151
2022-09-02T11:14:01.000Z,146
2022-09-02T11:15:31.000Z,174
2022-09-02T11:17:02.000Z,180
2022-09-02T11:18:32.000Z,168
2022-09-02T11:20:03.000Z,157
2022-09-02T11:21:33.000Z,151
2022-09-02T11:23:04.000Z,151
2022-09-02T11:24:34.000Z,151
2022-09-02T11:27:08.000Z,151
2022-09-02T11:28:39.000Z,151
2022-09-02T11:30:09.000Z,151
2022-09-02T11:31:40.000Z,151
2022-09-02T11:33:10.000Z,151
2022-09-02T11:34:41.000Z,157
2022-09-02T11:36:11.000Z,163
2022-09-02T11:37:42.000Z,174
2022-09-02T11:39:12.000Z,180
2022-09-02T11:40:43.000Z,168
2022-09-02T11:42:00.000Z,129
2022-09-02T11:43:17.000Z,180
2022-09-02T11:44:47.000Z,225
2022-09-02T11:46:18.000Z,191
2022-09-02T11:47:48.000Z,196
2022-09-02T11:49:19.000Z,202
2022-09-02T11:50:49.000Z,123
2022-09-02T11:52:20.000Z,174
2022-09-02T11:53:50.000Z,185
2022-09-02T11:55:21.000Z,208
2022-09-02T11:56:51.000Z,225
2022-09-02T11:58:08.000Z,191
2022-09-02T11:59:25.000Z,168
2022-09-02T12:00:56.000Z,174
2022-09-02T12:02:26.000Z,163
2022-09-02T12:03:57.000Z,168
2022-09-02T12:05:27.000Z,151
2022-09-02T12:06:58.000Z,151
2022-09-02T12:08:28.000Z,146
2022-09-02T12:09:59.000Z,140
2022-09-02T12:11:29.000Z,135
2022-09-02T12:13:00.000Z,135
2022-09-02T12:14:17.000Z,135
2022-09-02T12:15:34.000Z,140
2022-09-02T12:17:04.000Z,135
2022-09-02T12:18:35.000Z,140
2022-09-02T12:20:05.000Z,135
2022-09-02T12:21:36.000Z,140
2022-09-02T12:23:06.000Z,146
2022-09-02T12:24:37.000Z,140
2022-09-02T12:26:07.000Z,140
2022-09-02T12:27:38.000Z,135
2022-09-02T12:30:25.000Z,135
2022-09-02T12:31:42.000Z,140
2022-09-02T12:33:13.000Z,146
2022-09-02T12:34:43.000Z,151
2022-09-02T12:36:14.000Z,146
2022-09-02T12:37:44.000Z,196
2022-09-02T12:39:15.000Z,196
2022-09-02T12:40:45.000Z,140
2022-09-02T12:43:46.000Z,163
2022-09-02T12:45:17.000Z,163
2022-09-02T12:46:34.000Z,163
2022-09-02T12:47:51.000Z,180
2022-09-02T12:49:21.000Z,168
2022-09-02T12:50:52.000Z,174
2022-09-02T12:52:22.000Z,191
2022-09-02T12:53:53.000Z,163
2022-09-02T12:55:24.000Z,174
2022-09-02T12:56:54.000Z,151
2022-09-02T12:58:25.000Z,129
2022-09-02T12:59:55.000Z,146
2022-09-02T13:01:26.000Z,146
2022-09-02T13:02:43.000Z,129
2022-09-02T13:03:59.000Z,135
2022-09-02T13:05:30.000Z,174
2022-09-02T13:07:01.000Z,180
2022-09-02T13:08:31.000Z,196
2022-09-02T13:10:02.000Z,196
2022-09-02T13:11:32.000Z,185
2022-09-02T13:13:03.000Z,202
2022-09-02T13:14:33.000Z,146
2022-09-02T13:16:04.000Z,151
2022-09-02T13:17:34.000Z,123
2022-09-02T13:20:08.000Z,129
2022-09-02T13:21:39.000Z,112
2022-09-02T13:23:09.000Z,140
2022-09-02T13:24:40.000Z,146
2022-09-02T13:26:10.000Z,174
2022-09-02T13:27:41.000Z,140
2022-09-02T13:29:11.000Z,123
2022-09-02T13:30:42.000Z,118
2022-09-02T13:32:12.000Z,106
2022-09-02T13:33:43.000Z,106
2022-09-02T13:35:00.000Z,140
2022-09-02T13:36:17.000Z,168
2022-09-02T13:37:47.000Z,185
2022-09-02T13:40:48.000Z,196
2022-09-02T13:42:19.000Z,196
2022-09-02T13:43:49.000Z,157
2022-09-02T13:45:20.000Z,180
2022-09-02T13:46:50.000Z,185
2022-09-02T13:48:21.000Z,180
2022-09-02T13:49:51.000Z,174
2022-09-02T13:51:08.000Z,191
2022-09-02T13:52:25.000Z,163
2022-09-02T13:53:56.000Z,151
2022-09-02T13:55:26.000Z,118
2022-09-02T13:56:57.000Z,163
2022-09-02T13:58:27.000Z,129
2022-09-02T13:59:58.000Z,146
2022-09-02T14:01:28.000Z,140
2022-09-02T14:02:59.000Z,95
2022-09-02T14:04:29.000Z,84
2022-09-02T14:06:00.000Z,112
2022-09-02T14:07:17.000Z,84
2022-09-02T14:08:34.000Z,90
2022-09-02T14:10:04.000Z,78
2022-09-02T14:11:35.000Z,78
2022-09-02T14:13:05.000Z,73
2022-09-02T14:14:36.000Z,73
2022-09-02T14:16:06.000Z,73
2022-09-02T14:17:37.000Z,78
2022-09-02T14:19:07.000Z,112
2022-09-02T14:20:38.000Z,78
2022-09-02T14:22:08.000Z,78
2022-09-02T14:23:25.000Z,78
2022-09-02T14:24:42.000Z,78
2022-09-02T14:26:13.000Z,73
2022-09-02T14:27:43.000Z,78
2022-09-02T14:29:14.000Z,112
2022-09-02T14:30:44.000Z,90
2022-09-02T14:32:15.000Z,78
2022-09-02T14:33:45.000Z,61
2022-09-02T14:35:16.000Z,56
2022-09-02T14:36:46.000Z,56
2022-09-02T14:38:17.000Z,56
2022-09-02T14:39:34.000Z,56
2022-09-02T14:40:51.000Z,56
2022-09-02T14:42:21.000Z,84
2022-09-02T14:43:52.000Z,73
2022-09-02T14:45:22.000Z,84
2022-09-02T14:46:53.000Z,90
2022-09-02T14:48:23.000Z,95
2022-09-02T14:51:24.000Z,84
2022-09-02T14:52:55.000Z,90
2022-09-02T14:55:42.000Z,84
2022-09-02T14:56:59.000Z,84
2022-09-02T14:58:30.000Z,84
2022-09-02T15:00:00.000Z,45
2022-09-02T15:01:31.000Z,67
2022-09-02T15:03:01.000Z,67
2022-09-02T15:04:32.000Z,39
2022-09-02T15:06:02.000Z,39
2022-09-02T15:07:33.000Z,39
2022-09-02T15:09:03.000Z,39
2022-09-02T15:10:34.000Z,39
2022-09-02T15:11:51.000Z,56
2022-09-02T15:13:08.000Z,78
2022-09-02T15:14:38.000Z,78
2022-09-02T15:16:09.000Z,78
2022-09-02T15:17:39.000Z,78
2022-09-02T15:22:11.000Z,84
2022-09-02T15:23:41.000Z,84
2022-09-02T15:26:43.000Z,84
2022-09-02T15:27:59.000Z,78
2022-09-02T15:29:16.000Z,67
2022-09-02T15:30:47.000Z,67
2022-09-02T15:32:17.000Z,67
2022-09-02T15:33:48.000Z,61
2022-09-02T15:35:19.000Z,61
2022-09-02T15:36:49.000Z,61
2022-09-02T15:38:20.000Z,61
2022-09-02T15:39:50.000Z,61
2022-09-02T15:41:21.000Z,61
2022-09-02T15:44:08.000Z,61
2022-09-02T15:45:25.000Z,61
2022-09-02T15:46:56.000Z,33
2022-09-02T15:48:34.000Z,61
2022-09-02T15:50:05.000Z,61
2022-09-02T15:51:35.000Z,61
2022-09-02T15:53:06.000Z,61
2022-09-02T15:54:36.000Z,61
2022-09-02T15:56:07.000Z,45
2022-09-02T15:57:37.000Z,28
2022-09-02T15:59:08.000Z,28
2022-09-02T16:00:25.000Z,61
2022-09-02T16:01:42.000Z,61
2022-09-02T16:03:12.000Z,61
2022-09-02T16:04:43.000Z,61
2022-09-02T16:06:13.000Z,56
2022-09-02T16:07:44.000Z,56
2022-09-02T16:09:14.000Z,56
2022-09-02T16:10:45.000Z,50
2022-09-02T16:12:15.000Z,45
2022-09-02T16:13:46.000Z,28
2022-09-02T16:15:16.000Z,39
2022-09-02T16:16:33.000Z,28
2022-09-02T16:17:50.000Z,28
2022-09-02T16:19:21.000Z,45
2022-09-02T16:20:51.000Z,45
2022-09-02T16:22:22.000Z,45
2022-09-02T16:23:52.000Z,45
2022-09-02T16:25:23.000Z,45
2022-09-02T16:26:53.000Z,45
2022-09-02T16:28:24.000Z,45
2022-09-02T16:29:54.000Z,45
2022-09-02T16:31:25.000Z,39
2022-09-02T16:32:42.000Z,39
2022-09-02T16:33:59.000Z,39
2022-09-02T16:37:00.000Z,45
2022-09-02T16:38:30.000Z,45
2022-09-02T16:40:01.000Z,45
2022-09-02T16:41:31.000Z,45
2022-09-02T16:43:02.000Z,45
2022-09-02T16:44:32.000Z,45
2022-09-02T16:46:03.000Z,45
2022-09-02T16:47:33.000Z,39
2022-09-02T16:48:50.000Z,45
2022-09-02T16:50:07.000Z,39
2022-09-02T16:53:08.000Z,39
2022-09-02T16:54:39.000Z,33
2022-09-02T16:56:09.000Z,33
2022-09-02T16:57:40.000Z,33
2022-09-02T16:59:10.000Z,28
2022-09-02T17:00:41.000Z,28
2022-09-02T17:02:11.000Z,28
2022-09-02T17:03:42.000Z,28
2022-09-02T17:04:59.000Z,28
2022-09-02T17:06:16.000Z,28
2022-09-02T17:07:46.000Z,28
2022-09-02T17:09:17.000Z,22
2022-09-02T17:10:47.000Z,22
2022-09-02T17:12:18.000Z,22
2022-09-02T17:13:48.000Z,22
2022-09-02T17:15:19.000Z,22
2022-09-02T17:16:50.000Z,22
2022-09-02T17:18:20.000Z,22
2022-09-02T17:19:51.000Z,22
2022-09-02T17:21:08.000Z,22
2022-09-02T17:22:24.000Z,22
2022-09-02T17:25:25.000Z,16
2022-09-02T17:26:56.000Z,16
2022-09-02T17:28:26.000Z,16
2022-09-02T17:29:57.000Z,16
2022-09-02T17:31:27.000Z,11
2022-09-02T17:32:58.000Z,11
2022-09-02T17:34:28.000Z,11
2022-09-02T17:35:59.000Z,11
2022-09-02T17:37:16.000Z,11
2022-09-02T17:38:33.000Z,11
2022-09-02T17:40:03.000Z,11
2022-09-02T17:41:34.000Z,11
2022-09-02T17:43:04.000Z,5
2022-09-02T17:46:05.000Z,5
2022-09-02T17:47:36.000Z,5
2022-09-02T17:49:06.000Z,5
2022-09-02T17:50:37.000Z,5
2022-09-02T17:52:07.000Z,5
2022-09-02T17:53:24.000Z,5
2022-09-02T17:54:41.000Z,5
2022-09-02T17:56:12.000Z,5
2022-09-02T17:57:42.000Z,5
2022-09-02T17:59:13.000Z,0
2022-09-02T18:00:43.000Z,0
2022-09-02T18:02:14.000Z,0
2022-09-02T18:03:44.000Z,0
2022-09-02T18:05:15.000Z,0
2022-09-02T18:06:45.000Z,0
2022-09-02T18:08:16.000Z,0
2022-09-02T18:10:50.000Z,0
2022-09-02T18:12:20.000Z,0
2022-09-02T18:13:51.000Z,0
2022-09-02T18:15:21.000Z,0
2022-09-02T18:16:52.000Z,0
2022-09-02T18:18:22.000Z,0
2022-09-02T18:19:53.000Z,0
2022-09-02T18:21:23.000Z,0
2022-09-02T18:22:54.000Z,0
2022-09-02T18:24:24.000Z,0
2022-09-02T18:25:41.000Z,0
2022-09-02T18:26:58.000Z,0
2022-09-02T18:28:29.000Z,0
2022-09-02T18:29:59.000Z,0
2022-09-02T18:31:30.000Z,0
2022-09-02T18:33:00.000Z,0
2022-09-02T18:34:31.000Z,0
2022-09-02T18:36:01.000Z,0
2022-09-02T18:37:32.000Z,0
2022-09-02T18:39:02.000Z,0
2022-09-02T18:40:33.000Z,0
2022-09-02T18:41:50.000Z,0
2022-09-02T18:43:07.000Z,0
2022-09-02T18:46:08.000Z,0
2022-09-02T18:47:38.000Z,0
2022-09-02T18:49:09.000Z,0
2022-09-02T18:50:39.000Z,0
2022-09-02T18:52:10.000Z,0
2022-09-02T18:53:40.000Z,0
2022-09-02T18:55:11.000Z,0
2022-09-02T18:56:41.000Z,0
2022-09-02T18:57:58.000Z,0
2022-09-02T18:59:15.000Z,0
2022-09-02T19:00:46.000Z,0
2022-09-02T19:02:16.000Z,0
2022-09-02T19:03:47.000Z,0
2022-09-02T19:05:17.000Z,0
2022-09-02T19:06:48.000Z,0
2022-09-02T19:08:18.000Z,0
2022-09-02T19:09:49.000Z,0
2022-09-02T19:11:19.000Z,0
2022-09-02T19:12:50.000Z,0
2022-09-02T19:15:24.000Z,0
2022-09-02T19:16:54.000Z,0
2022-09-02T19:18:25.000Z,0
2022-09-02T19:19:55.000Z,0
2022-09-02T19:21:26.000Z,0
2022-09-02T19:22:56.000Z,0
2022-09-02T19:24:27.000Z,0
2022-09-02T19:25:57.000Z,0
2022-09-02T19:27:28.000Z,0
2022-09-02T19:28:58.000Z,0
2022-09-02T19:30:15.000Z,0
2022-09-02T19:31:32.000Z,0
2022-09-02T19:33:03.000Z,0
2022-09-02T19:34:33.000Z,0
2022-09-02T19:36:04.000Z,0
2022-09-02T19:37:34.000Z,0
2022-09-02T19:39:05.000Z,0
2022-09-02T19:40:35.000Z,0
2022-09-02T19:42:06.000Z,0
2022-09-02T19:43:36.000Z,0
2022-09-02T19:45:07.000Z,0
2022-09-02T19:46:24.000Z,0
2022-09-02T19:47:41.000Z,0
2022-09-02T19:49:11.000Z,0
2022-09-02T19:50:42.000Z,0
2022-09-02T19:52:12.000Z,0
2022-09-02T19:53:43.000Z,0
2022-09-02T19:55:13.000Z,0
2022-09-02T19:56:44.000Z,0
2022-09-02T19:58:14.000Z,0
2022-09-02T19:59:45.000Z,0
2022-09-02T20:01:15.000Z,0
2022-09-02T20:02:32.000Z,0
2022-09-02T20:03:49.000Z,0
2022-09-02T20:05:20.000Z,0
2022-09-02T20:06:50.000Z,0
2022-09-02T20:08:21.000Z,0
2022-09-02T20:09:51.000Z,0
2022-09-02T20:11:22.000Z,0
2022-09-02T20:12:52.000Z,0
2022-09-02T20:15:53.000Z,0
2022-09-02T20:17:24.000Z,0
2022-09-02T20:18:41.000Z,0
2022-09-02T20:19:58.000Z,0
2022-09-02T20:21:28.000Z,0
2022-09-02T20:22:59.000Z,0
2022-09-02T20:24:29.000Z,0
2022-09-02T20:26:00.000Z,0
2022-09-02T20:27:30.000Z,0
2022-09-02T20:29:01.000Z,0
2022-09-02T20:30:31.000Z,0
2022-09-02T20:32:02.000Z,0
2022-09-02T20:33:32.000Z,0
2022-09-02T20:34:49.000Z,0
2022-09-02T20:36:06.000Z,0
2022-09-02T20:37:37.000Z,0
2022-09-02T20:39:07.000Z,0
2022-09-02T20:40:38.000Z,0
2022-09-02T20:42:08.000Z,0
2022-09-02T20:43:47.000Z,0
2022-09-02T20:45:17.000Z,0
2022-09-02T20:46:48.000Z,0
2022-09-02T20:48:18.000Z,0
2022-09-02T20:49:49.000Z,0
2022-09-02T20:51:06.000Z,0
2022-09-02T20:52:23.000Z,0
2022-09-02T20:53:53.000Z,0
2022-09-02T20:55:24.000Z,0
2022-09-02T20:56:54.000Z,0
2022-09-02T20:58:25.000Z,0
2022-09-02T20:59:56.000Z,0
2022-09-02T21:01:26.000Z,0
2022-09-02T21:02:57.000Z,0
2022-09-02T21:04:27.000Z,0
2022-09-02T21:05:58.000Z,0
2022-09-02T21:07:15.000Z,0
2022-09-02T21:08:31.000Z,0
2022-09-02T21:10:02.000Z,0
2022-09-02T21:11:33.000Z,0
2022-09-02T21:13:03.000Z,0
2022-09-02T21:14:34.000Z,0
2022-09-02T21:16:04.000Z,0
2022-09-02T21:17:35.000Z,0
2022-09-02T21:19:05.000Z,0
2022-09-02T21:20:36.000Z,0
2022-09-02T21:22:06.000Z,0
2022-09-02T21:23:23.000Z,0
2022-09-02T21:24:40.000Z,0
2022-09-02T21:26:11.000Z,0
2022-09-02T21:27:41.000Z,0
2022-09-02T21:29:12.000Z,0
2022-09-02T21:30:42.000Z,0
2022-09-02T21:32:13.000Z,0
2022-09-02T21:33:43.000Z,0
2022-09-02T21:35:14.000Z,0
2022-09-02T21:36:44.000Z,0
2022-09-02T21:38:15.000Z,0
2022-09-02T21:39:32.000Z,0
2022-09-02T21:40:49.000Z,0
2022-09-02T21:42:19.000Z,0
2022-09-02T21:43:50.000Z,0
2022-09-02T21:45:20.000Z,0
2022-09-02T21:46:51.000Z,0
2022-09-02T21:48:21.000Z,0
2022-09-02T21:49:52.000Z,0
2022-09-02T21:51:22.000Z,0
2022-09-02T21:52:53.000Z,0
2022-09-02T21:54:23.000Z,0
2022-09-02T21:55:40.000Z,0
2022-09-02T21:56:57.000Z,0
2022-09-02T21:58:28.000Z,0
2022-09-02T21:59:58.000Z,0
2022-09-02T22:01:29.000Z,0
2022-09-02T22:02:59.000Z,0
2022-09-02T22:04:30.000Z,0
2022-09-02T22:06:00.000Z,0